Time;durP1;ratioP1;P1;durP2;ratioP2;P2;SDS_P1;SDS_P2;PMS_P1;PMS_P2;Temp;Humidity;BMP_temperature;BMP_pressure;BME280_temperature;BME280_humidity;BME280_pressure;Samples;Min_cycle;Max_cycle;Signal;HPM_P1;HPM_P2
2023/07/03 00:02:08;;;;;;;16.63;11.00;;;21.30;55.40;;;;;;6277934;22;20353;-70
2023/07/03 00:04:35;;;;;;;16.25;10.82;;;21.20;55.60;;;;;;6251576;22;20455;-69
2023/07/03 00:07:02;;;;;;;16.15;10.48;;;21.20;55.50;;;;;;6277390;22;20000;-70
2023/07/03 00:09:28;;;;;;;15.65;10.30;;;21.20;55.30;;;;;;6251732;22;20006;-70
2023/07/03 00:11:57;;;;;;;18.08;9.52;;;21.10;55.40;;;;;;6278121;22;19996;-69
2023/07/03 00:14:23;;;;;;;14.88;10.02;;;21.10;55.30;;;;;;6250438;22;19999;-70
2023/07/03 00:16:49;;;;;;;15.95;10.98;;;21.10;55.50;;;;;;6277684;22;19992;-69
2023/07/03 00:19:15;;;;;;;14.85;10.27;;;21.10;56.00;;;;;;6277675;22;20019;-69
2023/07/03 00:21:44;;;;;;;16.83;10.52;;;21.00;55.60;;;;;;6278380;22;19992;-69
2023/07/03 00:24:11;;;;;;;20.20;10.93;;;21.00;56.40;;;;;;6277033;22;20011;-69
2023/07/03 00:26:38;;;;;;;16.15;9.77;;;21.00;56.10;;;;;;6276971;22;19999;-70
2023/07/03 00:29:04;;;;;;;18.90;11.55;;;20.90;56.80;;;;;;6250262;22;19999;-74
2023/07/03 00:31:29;;;;;;;13.90;9.80;;;20.90;56.30;;;;;;6277240;22;20002;-70
2023/07/03 00:33:55;;;;;;;17.45;11.23;;;20.90;56.20;;;;;;6277210;22;20070;-70
2023/07/03 00:36:24;;;;;;;20.40;12.45;;;20.90;57.30;;;;;;6250535;22;20303;-69
2023/07/03 00:38:50;;;;;;;17.38;10.73;;;20.80;56.80;;;;;;6250311;22;19996;-69
2023/07/03 00:41:17;;;;;;;16.38;10.20;;;20.80;56.90;;;;;;6277428;22;19996;-69
2023/07/03 00:43:43;;;;;;;15.35;10.25;;;20.80;56.70;;;;;;6277456;22;20073;-69
2023/07/03 00:46:10;;;;;;;17.10;10.38;;;20.80;56.70;;;;;;6277562;22;19996;-69
2023/07/03 00:48:40;;;;;;;17.33;10.73;;;20.80;57.20;;;;;;6250194;22;20415;-69
2023/07/03 00:51:08;;;;;;;16.17;10.52;;;20.80;57.00;;;;;;6249730;22;20053;-69
2023/07/03 00:53:34;;;;;;;16.17;10.75;;;20.70;57.40;;;;;;6277138;22;20198;-69
2023/07/03 00:56:01;;;;;;;14.82;9.77;;;20.70;57.10;;;;;;6276676;22;20019;-70
2023/07/03 00:58:27;;;;;;;15.65;10.55;;;20.70;57.10;;;;;;6277325;22;19998;-73
2023/07/03 01:01:08;;;;;;;15.82;10.60;;;20.70;57.30;;;;;;6277943;22;20031;-70
2023/07/03 01:03:46;;;;;;;15.82;10.38;;;20.70;57.60;;;;;;6278048;22;19992;-69
2023/07/03 01:06:19;;;;;;;17.77;10.85;;;20.70;57.40;;;;;;6277482;22;20018;-69
2023/07/03 01:08:55;;;;;;;17.03;10.83;;;20.60;57.80;;;;;;6250539;22;20000;-69
2023/07/03 01:11:22;;;;;;;15.88;10.20;;;20.60;57.40;;;;;;6250271;22;19991;-69
2023/07/03 01:13:52;;;;;;;16.65;10.50;;;20.60;57.50;;;;;;6250432;22;20003;-69
2023/07/03 01:16:18;;;;;;;16.80;10.73;;;20.60;57.60;;;;;;6276933;22;20407;-69
2023/07/03 01:18:45;;;;;;;15.68;11.23;;;20.60;57.90;;;;;;6277205;22;20019;-69
2023/07/03 01:21:25;;;;;;;18.50;11.25;;;20.60;57.90;;;;;;6277177;22;20290;-69
2023/07/03 01:24:00;;;;;;;17.55;11.27;;;20.50;58.10;;;;;;6277667;22;19992;-70
2023/07/03 01:26:27;;;;;;;17.50;12.05;;;20.50;58.30;;;;;;6276572;22;20011;-69
2023/07/03 01:29:01;;;;;;;15.88;10.75;;;20.50;58.00;;;;;;6250387;22;20002;-69
2023/07/03 01:31:33;;;;;;;16.77;10.73;;;20.50;58.20;;;;;;6277199;22;19999;-69
2023/07/03 01:34:00;;;;;;;15.95;10.55;;;20.50;58.00;;;;;;6277305;22;20025;-70
2023/07/03 01:36:27;;;;;;;17.30;12.13;;;20.50;58.00;;;;;;6278175;22;20038;-69
2023/07/03 01:38:54;;;;;;;18.05;11.48;;;20.50;58.00;;;;;;6277539;22;20022;-69
2023/07/03 01:41:28;;;;;;;13.98;9.95;;;20.50;57.80;;;;;;6250030;22;19996;-69
2023/07/03 01:43:56;;;;;;;13.90;10.13;;;20.60;58.00;;;;;;6250664;22;20430;-69
2023/07/03 01:46:25;;;;;;;14.93;10.20;;;20.60;57.80;;;;;;6277167;22;20427;-69
2023/07/03 01:48:50;;;;;;;18.45;11.65;;;20.60;57.90;;;;;;6276791;22;19996;-69
2023/07/03 01:51:25;;;;;;;18.75;10.80;;;20.60;58.10;;;;;;6250237;22;20437;-69
2023/07/03 01:54:02;;;;;;;13.25;9.50;;;20.60;57.90;;;;;;6276801;22;20122;-70
2023/07/03 01:56:37;;;;;;;15.95;9.52;;;20.70;57.90;;;;;;6277165;22;20007;-70
2023/07/03 01:59:10;;;;;;;17.40;10.63;;;20.70;57.80;;;;;;6249797;22;20030;-70
2023/07/03 02:02:10;;;;;;;14.57;9.95;;;20.70;58.10;;;;;;6250421;22;20074;-69
2023/07/03 02:04:47;;;;;;;15.15;8.75;;;20.70;57.90;;;;;;6276760;22;20027;-69
2023/07/03 02:07:15;;;;;;;12.32;9.23;;;20.70;57.80;;;;;;6250126;22;20087;-69
2023/07/03 02:09:41;;;;;;;14.40;9.60;;;20.70;57.70;;;;;;6250190;22;20289;-69
2023/07/03 02:12:11;;;;;;;17.10;10.27;;;20.70;57.90;;;;;;6277332;22;19992;-69
2023/07/03 02:14:38;;;;;;;17.33;9.95;;;20.70;57.80;;;;;;6276968;22;19995;-70
2023/07/03 02:17:06;;;;;;;14.50;9.73;;;20.70;58.00;;;;;;6276892;22;20442;-70
2023/07/03 02:19:33;;;;;;;17.92;11.02;;;20.70;58.00;;;;;;6276485;22;20000;-69
2023/07/03 02:21:59;;;;;;;18.35;10.88;;;20.70;58.30;;;;;;6276635;22;19999;-69
2023/07/03 02:24:26;;;;;;;16.02;10.80;;;20.70;58.10;;;;;;6276341;22;20042;-70
2023/07/03 02:26:52;;;;;;;19.67;11.45;;;20.70;58.50;;;;;;6249657;22;20007;-69
2023/07/03 02:29:18;;;;;;;15.57;9.98;;;20.70;58.60;;;;;;6276820;22;19991;-69
2023/07/03 02:31:44;;;;;;;18.48;11.82;;;20.70;58.60;;;;;;6249759;22;20129;-69
2023/07/03 02:34:12;;;;;;;15.40;10.32;;;20.70;59.00;;;;;;6249959;22;19992;-69
2023/07/03 02:36:39;;;;;;;16.48;10.40;;;20.60;58.90;;;;;;6277170;22;20045;-70
2023/07/03 02:39:09;;;;;;;14.25;10.35;;;20.60;58.90;;;;;;6276526;22;20007;-69
2023/07/03 02:41:35;;;;;;;15.95;10.35;;;20.60;58.70;;;;;;6249738;22;19999;-70
2023/07/03 02:44:01;;;;;;;14.85;10.52;;;20.60;58.90;;;;;;6277089;22;19992;-69
2023/07/03 02:46:29;;;;;;;16.38;11.10;;;20.60;58.60;;;;;;6250478;22;20057;-69
2023/07/03 02:48:55;;;;;;;14.32;9.68;;;20.60;58.70;;;;;;6276610;22;20277;-70
2023/07/03 02:51:24;;;;;;;19.33;10.55;;;20.50;58.70;;;;;;6276290;22;19995;-69
2023/07/03 02:53:50;;;;;;;16.38;11.07;;;20.50;58.80;;;;;;6276438;22;20303;-69
2023/07/03 02:56:15;;;;;;;15.85;10.65;;;20.50;59.10;;;;;;6276528;22;20063;-70
2023/07/03 02:58:41;;;;;;;16.98;11.40;;;20.40;58.90;;;;;;6275960;22;19992;-70
2023/07/03 03:01:07;;;;;;;14.35;9.95;;;20.40;59.40;;;;;;6276870;22;20065;-70
2023/07/03 03:03:33;;;;;;;17.20;11.52;;;20.40;59.50;;;;;;6249554;22;19992;-70
2023/07/03 03:06:02;;;;;;;21.23;12.70;;;20.30;59.90;;;;;;6249247;22;20000;-69
2023/07/03 03:08:28;;;;;;;16.30;11.02;;;20.30;60.00;;;;;;6276490;22;20081;-69
2023/07/03 03:10:54;;;;;;;16.60;11.65;;;20.30;59.80;;;;;;6251196;22;19999;-69
2023/07/03 03:13:20;;;;;;;14.57;10.32;;;20.30;59.60;;;;;;6278812;22;20015;-69
2023/07/03 03:15:49;;;;;;;16.67;11.23;;;20.20;59.60;;;;;;6278426;22;19992;-69
2023/07/03 03:18:14;;;;;;;17.02;10.57;;;20.20;59.70;;;;;;6278654;22;20000;-69
2023/07/03 03:20:40;;;;;;;16.73;12.02;;;20.30;59.80;;;;;;6278113;22;20003;-69
2023/07/03 03:23:06;;;;;;;18.27;11.45;;;20.30;60.00;;;;;;6278195;22;20304;-69
2023/07/03 03:25:33;;;;;;;17.70;11.02;;;20.30;60.00;;;;;;6277968;22;20303;-69
2023/07/03 03:27:58;;;;;;;17.08;11.52;;;20.30;59.80;;;;;;6250818;22;20427;-70
2023/07/03 03:30:24;;;;;;;19.00;11.07;;;20.30;59.70;;;;;;6250429;22;20002;-69
2023/07/03 03:32:53;;;;;;;17.65;11.85;;;20.30;59.90;;;;;;6251258;22;20003;-69
2023/07/03 03:35:18;;;;;;;17.48;10.65;;;20.30;59.90;;;;;;6251311;22;20438;-69
2023/07/03 03:37:44;;;;;;;15.05;11.02;;;20.30;59.80;;;;;;6277794;22;20008;-69
2023/07/03 03:40:10;;;;;;;17.17;11.30;;;20.30;59.70;;;;;;6251330;22;19996;-69
2023/07/03 03:42:39;;;;;;;18.00;11.45;;;20.30;59.70;;;;;;6278735;22;20292;-69
2023/07/03 03:45:08;;;;;;;18.85;11.52;;;20.30;59.70;;;;;;6251301;22;20007;-69
2023/07/03 03:47:37;;;;;;;17.15;10.18;;;20.30;59.70;;;;;;6277772;22;20026;-69
2023/07/03 03:50:05;;;;;;;16.45;10.52;;;20.20;59.50;;;;;;6277413;22;19998;-69
2023/07/03 03:52:31;;;;;;;17.45;10.60;;;20.30;59.50;;;;;;6277779;22;20000;-69
2023/07/03 03:54:58;;;;;;;16.75;10.85;;;20.30;59.50;;;;;;6277586;22;20453;-69
2023/07/03 03:57:24;;;;;;;17.08;11.35;;;20.30;59.50;;;;;;6278110;22;20002;-69
2023/07/03 03:59:53;;;;;;;21.23;11.57;;;20.20;59.40;;;;;;6250831;22;20008;-69
2023/07/03 04:02:18;;;;;;;15.38;10.73;;;20.20;59.40;;;;;;6251081;22;19991;-69
2023/07/03 04:04:44;;;;;;;17.13;10.75;;;20.20;59.30;;;;;;6277929;22;19995;-69
2023/07/03 04:07:10;;;;;;;15.68;11.15;;;20.20;59.60;;;;;;6278067;22;20404;-69
2023/07/03 04:09:36;;;;;;;17.90;11.07;;;20.20;59.50;;;;;;6277833;22;19995;-69
2023/07/03 04:12:02;;;;;;;14.73;9.95;;;20.20;59.40;;;;;;6277548;22;20296;-69
2023/07/03 04:14:28;;;;;;;16.80;10.60;;;20.20;59.30;;;;;;6250263;22;20029;-69
2023/07/03 04:16:57;;;;;;;15.10;10.20;;;20.20;59.30;;;;;;6278103;22;20296;-69
2023/07/03 04:19:23;;;;;;;15.45;10.68;;;20.30;59.30;;;;;;6278103;22;19996;-69
2023/07/03 04:21:49;;;;;;;19.40;9.98;;;20.30;59.30;;;;;;6250741;22;20286;-69
2023/07/03 04:24:15;;;;;;;17.42;10.85;;;20.30;59.30;;;;;;6278051;22;20010;-72
2023/07/03 04:26:41;;;;;;;15.27;9.88;;;20.30;59.20;;;;;;6277051;22;20000;-69
2023/07/03 04:29:07;;;;;;;16.50;10.73;;;20.30;59.20;;;;;;6277993;22;20019;-69
2023/07/03 04:31:36;;;;;;;16.80;10.70;;;20.40;59.30;;;;;;6277854;22;20419;-69
2023/07/03 04:34:02;;;;;;;16.90;10.82;;;20.40;59.30;;;;;;6250854;22;19999;-69
2023/07/03 04:36:28;;;;;;;17.70;10.52;;;20.50;59.40;;;;;;6250774;22;20433;-69
2023/07/03 04:39:00;;;;;;;17.95;11.30;;;20.50;59.40;;;;;;6250436;22;19999;-69
2023/07/03 04:41:27;;;;;;;20.75;11.10;;;20.60;59.40;;;;;;6277163;22;20002;-69
2023/07/03 04:43:57;;;;;;;19.95;12.05;;;20.70;59.20;;;;;;6250151;22;20477;-69
2023/07/03 04:46:25;;;;;;;21.67;12.77;;;20.70;59.00;;;;;;6277489;22;20043;-69
2023/07/03 04:49:04;;;;;;;22.60;12.02;;;20.80;58.80;;;;;;6278530;22;20393;-69
2023/07/03 04:51:30;;;;;;;21.08;12.55;;;20.80;58.60;;;;;;6277297;22;20020;-69
2023/07/03 04:53:58;;;;;;;20.83;12.63;;;20.90;58.50;;;;;;6250131;22;20000;-69
2023/07/03 04:56:25;;;;;;;20.10;11.50;;;20.90;58.40;;;;;;6276529;22;19992;-69
2023/07/03 04:59:25;;;;;;;20.85;11.93;;;20.90;58.50;;;;;;6276854;22;20002;-69
2023/07/03 05:02:33;;;;;;;23.55;11.82;;;20.90;58.50;;;;;;6249765;22;20007;-69
2023/07/03 05:05:24;;;;;;;32.92;13.32;;;21.00;58.40;;;;;;6221189;22;20050;-70
2023/07/03 05:08:14;;;;;;;27.08;12.55;;;21.10;58.40;;;;;;6228938;22;20008;-69
2023/07/03 05:11:05;;;;;;;24.10;12.02;;;21.10;58.30;;;;;;6231784;22;19999;-69
2023/07/03 05:13:30;;;;;;;18.35;12.43;;;21.20;58.20;;;;;;6251104;22;20003;-69
2023/07/03 05:15:56;;;;;;;39.05;12.40;;;21.20;58.20;;;;;;6277009;22;19996;-69
2023/07/03 05:18:25;;;;;;;28.02;12.65;;;21.30;58.20;;;;;;6249500;22;20031;-69
2023/07/03 05:20:52;;;;;;;26.75;12.23;;;21.30;58.10;;;;;;6275944;22;20063;-70
2023/07/03 05:23:27;;;;;;;30.70;12.82;;;21.40;58.00;;;;;;6249553;22;20078;-69
2023/07/03 05:26:01;;;;;;;25.30;12.68;;;21.40;57.90;;;;;;6251218;22;19996;-69
2023/07/03 05:28:32;;;;;;;;;;;21.50;57.80;;;;;;6278294;22;20078;-69
2023/07/03 05:31:03;;;;;;;17.05;11.05;;;21.60;57.80;;;;;;6274902;22;20246;-69
2023/07/03 05:33:41;;;;;;;16.65;10.60;;;21.70;57.60;;;;;;6248099;22;20006;-70
2023/07/03 05:36:12;;;;;;;18.58;11.20;;;21.70;57.60;;;;;;6271113;22;20319;-69
2023/07/03 05:38:43;;;;;;;26.85;11.98;;;21.70;57.40;;;;;;6275709;22;19995;-71
2023/07/03 05:41:29;;;;;;;21.65;11.95;;;21.80;57.40;;;;;;6275701;22;20000;-69
2023/07/03 05:44:00;;;;;;;29.05;12.80;;;21.80;57.30;;;;;;6275538;22;20053;-70
2023/07/03 05:46:28;;;;;;;20.00;11.43;;;21.90;57.30;;;;;;6275565;22;20143;-70
2023/07/03 05:48:59;;;;;;;18.27;11.10;;;21.90;57.30;;;;;;6248288;22;20007;-70
2023/07/03 05:51:30;;;;;;;18.80;11.35;;;21.90;57.20;;;;;;6275650;22;19995;-70
2023/07/03 05:54:15;;;;;;;24.20;12.43;;;22.00;57.10;;;;;;6275581;22;19999;-71
2023/07/03 05:57:05;;;;;;;34.45;13.38;;;22.10;57.10;;;;;;6247133;22;20145;-70
2023/07/03 05:59:38;;;;;;;19.67;12.73;;;22.10;57.30;;;;;;6275260;22;20011;-70
2023/07/03 06:02:17;;;;;;;19.90;13.30;;;22.20;56.80;;;;;;6275816;22;20017;-69
2023/07/03 06:04:59;;;;;;;28.23;13.43;;;22.30;56.90;;;;;;6275800;22;19999;-71
2023/07/03 06:07:30;;;;;;;22.55;12.02;;;22.40;56.90;;;;;;6275247;22;20489;-70
2023/07/03 06:10:08;;;;;;;24.60;13.38;;;22.60;57.00;;;;;;6248490;22;20000;-70
2023/07/03 06:12:40;;;;;;;25.33;13.20;;;22.80;56.40;;;;;;6275429;22;19995;-70
2023/07/03 06:15:18;;;;;;;21.65;11.23;;;23.00;56.30;;;;;;6275625;22;20046;-70
2023/07/03 06:17:51;;;;;;;18.33;11.75;;;23.20;56.00;;;;;;6275278;22;19991;-70
2023/07/03 06:20:27;;;;;;;21.83;12.00;;;23.40;55.80;;;;;;6248321;22;20000;-71
2023/07/03 06:23:07;;;;;;;19.40;11.38;;;23.60;55.20;;;;;;6248627;22;20149;-71
2023/07/03 06:25:35;;;;;;;19.85;12.55;;;23.80;54.80;;;;;;6275310;22;20019;-70
2023/07/03 06:28:08;;;;;;;18.48;12.20;;;24.00;54.70;;;;;;6275494;22;20000;-71
2023/07/03 06:30:57;;;;;;;16.48;11.57;;;24.10;54.40;;;;;;6248543;22;19995;-70
2023/07/03 06:33:28;;;;;;;16.48;11.15;;;24.30;54.10;;;;;;6275407;22;20057;-70
2023/07/03 06:36:10;;;;;;;21.92;12.48;;;24.40;53.80;;;;;;6248408;22;20026;-71
2023/07/03 06:38:55;;;;;;;17.27;11.43;;;24.60;53.40;;;;;;6275730;22;20303;-71
2023/07/03 06:41:27;;;;;;;19.70;12.38;;;24.70;52.70;;;;;;6275481;22;19995;-71
2023/07/03 06:43:59;;;;;;;16.23;11.00;;;24.80;52.30;;;;;;6275168;22;20049;-71
2023/07/03 06:46:43;;;;;;;20.00;12.90;;;24.80;52.00;;;;;;6276305;22;20000;-71
2023/07/03 06:49:28;;;;;;;26.05;13.30;;;24.90;51.40;;;;;;6277092;22;20085;-72
2023/07/03 06:51:57;;;;;;;25.67;13.13;;;24.90;50.90;;;;;;6277581;22;20121;-71
2023/07/03 06:54:33;;;;;;;23.52;13.18;;;24.80;50.30;;;;;;6277528;22;19998;-71
2023/07/03 06:57:15;;;;;;;37.92;15.05;;;24.80;49.90;;;;;;6277510;22;20000;-71
2023/07/03 06:59:52;;;;;;;34.53;15.75;;;24.80;49.50;;;;;;6276733;22;20003;-71
2023/07/03 07:02:20;;;;;;;29.15;14.07;;;24.70;49.50;;;;;;6277034;22;19995;-71
2023/07/03 07:04:55;;;;;;;19.73;13.88;;;24.70;49.90;;;;;;6276735;22;20014;-71
2023/07/03 07:07:31;;;;;;;21.92;13.73;;;24.70;50.00;;;;;;6277071;22;20010;-71
2023/07/03 07:10:16;;;;;;;24.23;14.05;;;24.70;49.80;;;;;;6277375;22;19995;-71
2023/07/03 07:12:46;;;;;;;21.08;13.85;;;24.70;50.00;;;;;;6277078;22;20368;-71
2023/07/03 07:15:17;;;;;;;20.42;13.45;;;24.70;49.80;;;;;;6250141;22;20029;-71
2023/07/03 07:18:01;;;;;;;19.95;13.40;;;24.70;49.50;;;;;;6277350;22;20000;-70
2023/07/03 07:20:44;;;;;;;20.97;14.00;;;24.70;49.50;;;;;;6276797;22;20007;-72
2023/07/03 07:23:23;;;;;;;27.98;13.60;;;24.70;49.50;;;;;;6277306;22;19992;-73
2023/07/03 07:25:57;;;;;;;21.95;12.95;;;24.80;49.20;;;;;;6277204;22;19992;-71
2023/07/03 07:28:42;;;;;;;20.05;13.07;;;24.80;49.20;;;;;;6276656;22;20003;-71
2023/07/03 07:31:31;;;;;;;32.28;15.25;;;24.80;49.00;;;;;;6248248;22;20428;-71
2023/07/03 07:34:04;;;;;;;22.73;12.68;;;24.90;49.00;;;;;;6249801;22;20045;-71
2023/07/03 07:36:37;;;;;;;19.83;12.93;;;24.90;49.00;;;;;;6277121;22;20053;-71
2023/07/03 07:39:08;;;;;;;21.52;14.02;;;25.00;48.80;;;;;;6249793;22;20034;-72
2023/07/03 07:41:44;;;;;;;22.77;13.38;;;25.10;48.50;;;;;;6276592;22;19991;-71
2023/07/03 07:44:26;;;;;;;26.80;14.85;;;25.20;48.20;;;;;;6276721;22;20011;-71
2023/07/03 07:46:57;;;;;;;26.58;14.65;;;25.30;47.90;;;;;;6249564;22;20012;-71
2023/07/03 07:49:28;;;;;;;25.67;14.70;;;25.40;46.40;;;;;;6276884;22;19996;-72
2023/07/03 07:52:13;;;;;;;21.15;13.85;;;25.40;46.60;;;;;;6276957;22;19996;-71
2023/07/03 07:54:52;;;;;;;23.02;13.70;;;25.50;45.60;;;;;;6276353;22;20011;-72
2023/07/03 07:57:28;;;;;;;30.70;13.95;;;25.60;45.60;;;;;;6276651;22;19995;-71
2023/07/03 07:59:59;;;;;;;20.70;13.65;;;25.70;45.00;;;;;;6276385;22;20007;-71
2023/07/03 08:02:49;;;;;;;25.38;13.68;;;25.80;44.70;;;;;;6249641;22;20006;-71
2023/07/03 08:05:31;;;;;;;25.40;13.95;;;25.90;44.40;;;;;;6248351;22;20011;-71
2023/07/03 08:08:09;;;;;;;24.27;13.73;;;26.00;44.40;;;;;;6276709;22;19999;-71
2023/07/03 08:10:40;;;;;;;28.92;14.98;;;26.10;43.60;;;;;;6276722;22;20022;-72
2023/07/03 08:13:17;;;;;;;23.40;13.98;;;26.20;43.20;;;;;;6276398;22;20354;-71
2023/07/03 08:15:59;;;;;;;23.90;14.00;;;26.50;43.90;;;;;;6276391;22;20408;-71
2023/07/03 08:18:36;;;;;;;32.13;14.23;;;26.70;43.70;;;;;;6276757;22;20112;-71
2023/07/03 08:21:07;;;;;;;26.95;15.68;;;26.80;43.30;;;;;;6276571;22;19999;-72
2023/07/03 08:23:48;;;;;;;27.55;15.25;;;27.00;42.50;;;;;;6276702;22;19991;-71
2023/07/03 08:26:30;;;;;;;21.65;14.02;;;27.10;41.60;;;;;;6248161;22;20007;-72
2023/07/03 08:29:12;;;;;;;28.13;14.10;;;27.20;42.10;;;;;;6276157;22;20003;-71
2023/07/03 08:31:53;;;;;;;22.00;14.07;;;27.40;41.90;;;;;;6248835;22;19992;-72
2023/07/03 08:34:35;;;;;;;24.35;14.40;;;27.50;41.50;;;;;;6276238;22;20053;-71
2023/07/03 08:37:03;;;;;;;28.83;14.55;;;27.50;40.40;;;;;;6248069;22;20003;-71
2023/07/03 08:39:50;;;;;;;28.70;14.00;;;27.50;40.50;;;;;;6276265;22;19995;-71
2023/07/03 08:42:25;;;;;;;23.40;12.85;;;27.50;40.10;;;;;;6276034;22;20438;-72
2023/07/03 08:45:00;;;;;;;26.08;15.07;;;27.40;40.50;;;;;;6276454;22;20018;-71
2023/07/03 08:47:37;;;;;;;20.77;12.48;;;27.30;40.50;;;;;;6276164;22;20007;-71
2023/07/03 08:50:23;;;;;;;18.25;13.05;;;27.30;40.90;;;;;;6276491;22;20400;-71
2023/07/03 08:53:04;;;;;;;25.23;15.35;;;27.30;41.10;;;;;;6276079;22;19996;-71
2023/07/03 08:55:57;;;;;;;21.10;13.88;;;27.30;40.80;;;;;;6276043;22;20308;-72
2023/07/03 08:58:33;;;;;;;26.00;14.57;;;27.40;41.50;;;;;;6276300;22;20048;-71
2023/07/03 09:01:04;;;;;;;20.80;13.63;;;27.50;39.90;;;;;;6248778;22;20003;-71
2023/07/03 09:04:01;;;;;;;22.05;13.32;;;27.60;39.30;;;;;;6275887;22;20300;-71
2023/07/03 09:06:48;;;;;;;34.05;14.95;;;27.70;39.50;;;;;;6275800;22;20049;-71
2023/07/03 09:10:14;;;;;;;25.58;15.07;;;27.80;38.80;;;;;;6248701;22;19996;-70
2023/07/03 09:13:10;;;;;;;21.75;13.20;;;27.80;39.70;;;;;;6246427;22;20335;-70
2023/07/03 09:16:19;;;;;;;22.05;13.13;;;27.90;38.30;;;;;;6276150;22;20019;-70
2023/07/03 09:19:10;;;;;;;31.90;14.95;;;27.90;38.30;;;;;;6271582;22;20027;-70
2023/07/03 09:21:59;;;;;;;29.73;14.65;;;28.00;37.90;;;;;;6276068;22;20031;-72
2023/07/03 09:24:37;;;;;;;21.02;13.82;;;28.10;38.00;;;;;;6247310;22;20003;-73
2023/07/03 09:27:20;;;;;;;31.00;14.88;;;28.20;39.00;;;;;;6275846;22;20007;-70
2023/07/03 09:30:00;;;;;;;26.63;14.23;;;28.30;37.70;;;;;;6275947;22;20075;-70
2023/07/03 09:32:32;;;;;;;28.67;13.70;;;28.40;35.70;;;;;;6248828;22;20312;-70
2023/07/03 09:35:17;;;;;;;19.13;12.70;;;28.50;35.20;;;;;;6276041;22;19995;-70
2023/07/03 09:37:57;;;;;;;19.88;12.70;;;28.50;34.80;;;;;;6275384;22;20007;-71
2023/07/03 09:40:31;;;;;;;21.65;13.48;;;28.60;34.30;;;;;;6275317;22;20307;-71
2023/07/03 09:43:22;;;;;;;24.83;13.40;;;28.60;34.00;;;;;;6248929;22;19992;-71
2023/07/03 09:46:09;;;;;;;24.33;14.45;;;28.60;34.40;;;;;;6275513;22;20015;-72
2023/07/03 09:48:40;;;;;;;20.23;12.05;;;28.70;34.50;;;;;;6275767;22;20285;-71
2023/07/03 09:51:26;;;;;;;23.67;13.23;;;28.90;34.30;;;;;;6275535;22;19987;-72
2023/07/03 09:54:07;;;;;;;22.40;13.30;;;28.90;33.60;;;;;;6275250;22;19995;-71
2023/07/03 09:56:39;;;;;;;26.35;13.23;;;29.00;33.40;;;;;;6275634;22;19999;-71
2023/07/03 09:59:23;;;;;;;23.17;12.23;;;29.00;33.30;;;;;;6275423;22;20016;-71
2023/07/03 10:02:09;;;;;;;18.17;12.00;;;29.00;33.70;;;;;;6247286;22;20091;-71
2023/07/03 10:04:45;;;;;;;23.42;12.68;;;29.10;33.80;;;;;;6275170;22;20006;-71
2023/07/03 10:07:28;;;;;;;20.10;12.43;;;29.10;33.20;;;;;;6248497;22;20014;-71
2023/07/03 10:10:12;;;;;;;22.08;12.38;;;29.00;32.70;;;;;;6248209;22;20003;-71
2023/07/03 10:12:59;;;;;;;19.15;12.55;;;29.00;31.90;;;;;;6275789;22;20002;-71
2023/07/03 10:15:37;;;;;;;23.02;12.40;;;28.90;32.10;;;;;;6248088;22;20011;-71
2023/07/03 10:18:35;;;;;;;22.48;12.70;;;28.90;32.50;;;;;;6248444;22;20024;-71
2023/07/03 10:21:16;;;;;;;21.98;12.02;;;28.80;33.00;;;;;;6260806;22;20015;-71
2023/07/03 10:24:14;;;;;;;25.13;11.70;;;28.80;32.90;;;;;;6250343;22;20443;-72
2023/07/03 10:27:04;;;;;;;20.02;13.13;;;28.80;33.10;;;;;;6277251;22;19992;-72
2023/07/03 10:29:52;;;;;;;21.27;11.35;;;28.70;33.00;;;;;;6249104;22;20058;-71
2023/07/03 10:32:36;;;;;;;23.77;12.10;;;28.70;32.10;;;;;;6277168;22;19992;-73
2023/07/03 10:35:22;;;;;;;20.60;12.30;;;28.70;32.40;;;;;;6277280;22;19988;-71
2023/07/03 10:38:27;;;;;;;20.77;11.68;;;28.70;33.50;;;;;;6249265;22;20007;-72
2023/07/03 10:41:07;;;;;;;;;;;28.80;33.30;;;;;;6277649;22;19991;-72
2023/07/03 10:43:43;;;;;;;20.90;10.98;;;28.90;34.30;;;;;;6277692;22;19906;-72
2023/07/03 10:46:38;;;;;;;21.98;13.15;;;28.90;32.60;;;;;;6277406;22;19995;-72
2023/07/03 10:49:22;;;;;;;22.20;12.02;;;29.00;32.40;;;;;;6257803;22;20011;-72
2023/07/03 10:52:14;;;;;;;23.10;11.77;;;29.10;32.60;;;;;;6277666;22;19999;-72
2023/07/03 10:55:18;;;;;;;19.42;11.35;;;29.10;32.20;;;;;;6277486;22;19995;-71
2023/07/03 10:58:03;;;;;;;18.42;11.77;;;29.20;32.40;;;;;;6250280;22;20004;-71
2023/07/03 11:01:22;;;;;;;18.63;10.85;;;29.40;32.50;;;;;;6277313;22;20003;-70
2023/07/03 11:03:55;;;;;;;21.33;11.98;;;29.50;32.50;;;;;;6277225;22;19999;-70
2023/07/03 11:07:02;;;;;;;21.30;11.63;;;29.70;31.70;;;;;;6250212;22;20559;-71
2023/07/03 11:10:02;;;;;;;26.35;12.52;;;29.90;32.10;;;;;;6155546;22;20145;-70
2023/07/03 11:12:41;;;;;;;23.67;11.95;;;30.00;31.40;;;;;;6277204;22;20020;-71
2023/07/03 11:15:30;;;;;;;17.83;11.32;;;30.10;31.10;;;;;;6250382;22;20007;-70
2023/07/03 11:18:38;;;;;;;21.70;11.15;;;30.30;30.60;;;;;;6277026;22;20340;-71
2023/07/03 11:21:32;;;;;;;19.60;11.48;;;30.40;31.10;;;;;;6276915;22;20007;-70
2023/07/03 11:24:19;;;;;;;17.58;11.05;;;30.60;31.20;;;;;;6276824;22;19999;-70
2023/07/03 11:26:57;;;;;;;27.38;12.35;;;30.70;30.80;;;;;;6276804;22;20007;-70
2023/07/03 11:29:46;;;;;;;18.73;10.15;;;30.80;30.00;;;;;;6277253;22;19995;-72
2023/07/03 11:32:27;;;;;;;20.80;11.25;;;30.80;30.00;;;;;;6276674;22;19998;-71
2023/07/03 11:35:12;;;;;;;17.88;11.13;;;30.90;29.10;;;;;;6276763;22;20016;-71
2023/07/03 11:38:07;;;;;;;17.33;10.57;;;31.00;29.70;;;;;;6276554;22;20002;-71
2023/07/03 11:41:04;;;;;;;18.88;11.25;;;31.00;29.80;;;;;;6277094;22;20045;-72
2023/07/03 11:43:50;;;;;;;16.75;10.88;;;31.10;29.10;;;;;;6276909;22;19996;-71
2023/07/03 11:46:27;;;;;;;18.45;11.38;;;31.20;29.10;;;;;;6276430;22;20003;-72
2023/07/03 11:49:11;;;;;;;18.35;10.80;;;31.20;29.00;;;;;;6277012;22;20061;-71
2023/07/03 11:51:43;;;;;;;17.20;10.63;;;31.30;29.50;;;;;;6276530;22;19995;-71
2023/07/03 11:54:23;;;;;;;18.27;10.13;;;31.40;29.10;;;;;;6249629;22;19996;-72
2023/07/03 11:57:06;;;;;;;20.45;10.80;;;31.50;29.50;;;;;;6276926;22;20000;-71
2023/07/03 11:59:39;;;;;;;15.85;10.15;;;31.60;28.70;;;;;;6276615;22;20066;-72
2023/07/03 12:02:36;;;;;;;;;;;31.70;28.70;;;;;;6276520;22;20057;-72
2023/07/03 12:05:10;;;;;;;16.58;11.02;;;31.90;29.80;;;;;;6276529;22;19902;-72
2023/07/03 12:07:45;;;;;;;16.15;10.40;;;32.00;28.20;;;;;;6276430;22;20000;-72
2023/07/03 12:10:49;;;;;;;20.33;11.00;;;32.00;28.40;;;;;;6276735;22;20071;-71
2023/07/03 12:13:33;;;;;;;21.83;11.10;;;32.00;28.50;;;;;;6276457;22;20053;-72
2023/07/03 12:16:30;;;;;;;17.00;10.40;;;32.00;28.20;;;;;;6277021;22;20066;-72
2023/07/03 12:19:01;;;;;;;19.23;10.95;;;32.00;27.60;;;;;;6249264;22;20003;-71
2023/07/03 12:21:39;;;;;;;17.45;10.93;;;31.90;27.60;;;;;;6249422;22;19999;-72
2023/07/03 12:24:24;;;;;;;17.92;10.40;;;31.80;27.90;;;;;;6249301;22;20420;-71
2023/07/03 12:27:07;;;;;;;13.68;10.20;;;31.70;28.00;;;;;;6276217;22;20095;-72
2023/07/03 12:29:58;;;;;;;18.42;9.75;;;31.70;28.60;;;;;;6248081;22;19992;-71
2023/07/03 12:32:43;;;;;;;28.08;10.70;;;31.60;28.80;;;;;;6276384;22;19988;-71
2023/07/03 12:35:31;;;;;;;19.73;11.40;;;31.60;28.20;;;;;;6276176;22;19988;-71
2023/07/03 12:38:13;;;;;;;14.00;9.95;;;31.60;27.70;;;;;;6276150;22;20053;-71
2023/07/03 12:40:45;;;;;;;14.82;9.57;;;31.60;28.10;;;;;;6276442;22;20006;-72
2023/07/03 12:43:33;;;;;;;18.45;10.57;;;31.50;28.10;;;;;;6276463;22;19999;-72
2023/07/03 12:46:17;;;;;;;16.15;10.90;;;31.60;28.40;;;;;;6275928;22;20296;-71
2023/07/03 12:49:05;;;;;;;18.45;10.43;;;31.60;27.90;;;;;;6275963;22;20415;-71
2023/07/03 12:51:48;;;;;;;16.80;10.35;;;31.50;27.90;;;;;;6276127;22;20296;-72
2023/07/03 12:54:34;;;;;;;16.33;10.10;;;31.60;28.10;;;;;;6276567;22;19996;-72
2023/07/03 12:57:04;;;;;;;19.55;10.68;;;31.60;28.00;;;;;;6276058;22;20356;-72
2023/07/03 12:59:45;;;;;;;15.48;9.77;;;31.60;27.70;;;;;;6276110;22;20065;-72
2023/07/03 13:02:36;;;;;;;16.55;10.25;;;31.60;27.80;;;;;;6276060;22;20026;-72
2023/07/03 13:05:12;;;;;;;16.58;10.05;;;31.60;27.90;;;;;;6276340;22;20047;-71
2023/07/03 13:07:51;;;;;;;19.35;10.75;;;31.70;27.80;;;;;;6276102;22;20000;-71
2023/07/03 13:10:28;;;;;;;13.95;9.00;;;31.70;28.00;;;;;;6275739;22;19991;-72
2023/07/03 13:13:10;;;;;;;14.70;10.20;;;31.80;27.80;;;;;;6248988;22;20000;-72
2023/07/03 13:15:43;;;;;;;15.50;8.95;;;31.90;28.10;;;;;;6248990;22;19996;-72